Etusivu
METAR-TAF:

METAR-TAF

Lentoasemat :

Joensuu, Suomi

Joensuun lentoasema

Leveyspiiri: 62-40N, Pituuspiiri: 029-38E, korkeus merenpinnasta: 119 m

Tämänhetkinen sää

Tämä raportti tehtiin 34 minuuttia sitten, kello 13.50 UTC
Tuuli 4 kn lännestä
Lämpötila -21°C
Kosteus 84%
Ilmanpaine 1010 hPa
Näkyvyys: 4400 m
Muutamia pilviä 2000 ft:n korkeudessa
Pilvistä 2800 ft:n korkeudessa
heikkoa lumisadetta

METAR: EFJO 221350Z AUTO 28004KT 4400 -SN FEW020 OVC028 M21/M23 Q1010

Aika: 16:24 (14:24 UTC)

Sääennuste

Tämä raportti tehtiin 2 tuntia ja 51 minuuttia sitten, kello 11.33 UTC
Ennuste voimassa 22. päivästä klo 12 UTC - 22. päivään klo 17 UTC
Tuuli 2 kn lännestä/luoteesta
Näkyvyys: 8000 m
Muutamia pilviä 2500 ft:n korkeudessa
heikkoa lumisadetta
Ajoittain
22. päivästä klo 12 UTC - 22. päivään klo 17 UTC
Näkyvyys: 3000 m

TAF: EFJO 221133Z 2212/2217 29002KT 8000 -SN FEW025 TEMPO 2212/2217 3000

Säähavainnot ja -ennusteet yli 4000 lentoasemalta (METAR- ja TAF-raportit).

Käytössä olevat sääasemat on merkitty karttaan keltaisilla ja punaisilla pisteillä.

Aseta hiiri pisteen päälle nähdäksesi sääaseman nimen.

Klikkaa sitten nähdäksesi säähavainnot ja -ennusteet.

Kartan vaihtaminen: klikkaa mustalla rastilla varustettuja vihreitä pisteitä, niin voit zoomata sisään; viivalla varustettua vihreää pistettä, niin voit zoomata ulos tai vihreitä nuolia, niin pääset viereisille kartoille.


METAR-TAF: